sensor_id;sensor_type;location;lat;lon;timestamp;P1;durP1;ratioP1;P2;durP2;ratioP2
75169;SDS011;63749;49.186;9.222;2024-03-25T00:00:40;5.63;;;2.30;;
75169;SDS011;63749;49.186;9.222;2024-03-25T00:03:06;5.47;;;2.00;;
75169;SDS011;63749;49.186;9.222;2024-03-25T00:05:33;5.10;;;1.70;;
75169;SDS011;63749;49.186;9.222;2024-03-25T00:07:58;5.30;;;1.92;;
75169;SDS011;63749;49.186;9.222;2024-03-25T00:10:24;7.30;;;2.10;;
75169;SDS011;63749;49.186;9.222;2024-03-25T00:12:49;4.78;;;1.77;;
75169;SDS011;63749;49.186;9.222;2024-03-25T00:15:19;5.10;;;2.10;;
75169;SDS011;63749;49.186;9.222;2024-03-25T00:17:45;4.03;;;1.80;;
75169;SDS011;63749;49.186;9.222;2024-03-25T00:20:12;4.75;;;2.25;;
75169;SDS011;63749;49.186;9.222;2024-03-25T00:22:38;7.47;;;2.20;;
75169;SDS011;63749;49.186;9.222;2024-03-25T00:25:03;5.18;;;2.17;;
75169;SDS011;63749;49.186;9.222;2024-03-25T00:27:29;6.45;;;2.38;;
75169;SDS011;63749;49.186;9.222;2024-03-25T00:29:55;6.67;;;2.50;;
75169;SDS011;63749;49.186;9.222;2024-03-25T00:32:21;8.77;;;2.78;;
75169;SDS011;63749;49.186;9.222;2024-03-25T00:34:46;5.77;;;2.03;;
75169;SDS011;63749;49.186;9.222;2024-03-25T00:37:12;8.23;;;2.27;;
75169;SDS011;63749;49.186;9.222;2024-03-25T00:39:37;7.57;;;2.17;;
75169;SDS011;63749;49.186;9.222;2024-03-25T00:42:03;6.55;;;2.33;;
75169;SDS011;63749;49.186;9.222;2024-03-25T00:44:28;8.00;;;2.70;;
75169;SDS011;63749;49.186;9.222;2024-03-25T00:46:54;8.40;;;2.73;;
75169;SDS011;63749;49.186;9.222;2024-03-25T00:49:19;7.60;;;2.90;;
75169;SDS011;63749;49.186;9.222;2024-03-25T00:51:44;6.70;;;2.33;;
75169;SDS011;63749;49.186;9.222;2024-03-25T00:54:10;7.67;;;2.23;;
75169;SDS011;63749;49.186;9.222;2024-03-25T00:56:35;5.23;;;2.47;;
75169;SDS011;63749;49.186;9.222;2024-03-25T00:59:01;7.07;;;2.70;;
75169;SDS011;63749;49.186;9.222;2024-03-25T01:01:31;5.85;;;2.30;;
75169;SDS011;63749;49.186;9.222;2024-03-25T01:03:57;6.03;;;2.43;;
75169;SDS011;63749;49.186;9.222;2024-03-25T01:06:23;9.00;;;2.60;;
75169;SDS011;63749;49.186;9.222;2024-03-25T01:08:49;7.37;;;2.50;;
75169;SDS011;63749;49.186;9.222;2024-03-25T01:11:15;7.13;;;2.65;;
75169;SDS011;63749;49.186;9.222;2024-03-25T01:13:40;6.43;;;2.30;;
75169;SDS011;63749;49.186;9.222;2024-03-25T01:16:06;8.30;;;2.35;;
75169;SDS011;63749;49.186;9.222;2024-03-25T01:18:32;6.78;;;2.38;;
75169;SDS011;63749;49.186;9.222;2024-03-25T01:20:58;5.90;;;2.27;;
75169;SDS011;63749;49.186;9.222;2024-03-25T01:23:23;4.33;;;2.23;;
75169;SDS011;63749;49.186;9.222;2024-03-25T01:25:48;6.78;;;2.35;;
75169;SDS011;63749;49.186;9.222;2024-03-25T01:28:14;6.63;;;2.33;;
75169;SDS011;63749;49.186;9.222;2024-03-25T01:30:39;7.47;;;2.73;;
75169;SDS011;63749;49.186;9.222;2024-03-25T01:33:04;5.53;;;2.47;;
75169;SDS011;63749;49.186;9.222;2024-03-25T01:35:30;7.23;;;2.63;;
75169;SDS011;63749;49.186;9.222;2024-03-25T01:37:56;7.20;;;2.72;;
75169;SDS011;63749;49.186;9.222;2024-03-25T01:40:22;7.18;;;2.55;;
75169;SDS011;63749;49.186;9.222;2024-03-25T01:42:57;7.00;;;2.60;;
75169;SDS011;63749;49.186;9.222;2024-03-25T01:45:26;7.20;;;2.63;;
75169;SDS011;63749;49.186;9.222;2024-03-25T01:47:54;7.40;;;2.33;;
75169;SDS011;63749;49.186;9.222;2024-03-25T01:50:21;5.65;;;2.40;;
75169;SDS011;63749;49.186;9.222;2024-03-25T01:52:48;6.35;;;2.60;;
75169;SDS011;63749;49.186;9.222;2024-03-25T01:55:18;5.53;;;2.40;;
75169;SDS011;63749;49.186;9.222;2024-03-25T01:57:46;5.10;;;2.40;;
75169;SDS011;63749;49.186;9.222;2024-03-25T02:00:12;7.23;;;2.70;;
75169;SDS011;63749;49.186;9.222;2024-03-25T02:02:40;10.13;;;2.95;;
75169;SDS011;63749;49.186;9.222;2024-03-25T02:05:10;4.82;;;2.60;;
75169;SDS011;63749;49.186;9.222;2024-03-25T02:07:36;7.78;;;2.88;;
75169;SDS011;63749;49.186;9.222;2024-03-25T02:10:02;9.57;;;2.97;;
75169;SDS011;63749;49.186;9.222;2024-03-25T02:12:29;6.53;;;2.50;;
75169;SDS011;63749;49.186;9.222;2024-03-25T02:14:55;6.50;;;2.50;;
75169;SDS011;63749;49.186;9.222;2024-03-25T02:17:21;7.47;;;2.70;;
75169;SDS011;63749;49.186;9.222;2024-03-25T02:19:46;7.90;;;2.70;;
75169;SDS011;63749;49.186;9.222;2024-03-25T02:22:11;5.53;;;2.63;;
75169;SDS011;63749;49.186;9.222;2024-03-25T02:24:37;9.50;;;3.13;;
75169;SDS011;63749;49.186;9.222;2024-03-25T02:27:03;6.07;;;2.53;;
75169;SDS011;63749;49.186;9.222;2024-03-25T02:29:35;8.65;;;3.33;;
75169;SDS011;63749;49.186;9.222;2024-03-25T02:32:00;6.73;;;2.83;;
75169;SDS011;63749;49.186;9.222;2024-03-25T02:34:25;7.43;;;2.67;;
75169;SDS011;63749;49.186;9.222;2024-03-25T02:36:51;9.20;;;2.90;;
75169;SDS011;63749;49.186;9.222;2024-03-25T02:39:17;6.38;;;2.90;;
75169;SDS011;63749;49.186;9.222;2024-03-25T02:41:43;9.63;;;3.00;;
75169;SDS011;63749;49.186;9.222;2024-03-25T02:44:09;11.95;;;3.60;;
75169;SDS011;63749;49.186;9.222;2024-03-25T02:46:34;8.83;;;3.23;;
75169;SDS011;63749;49.186;9.222;2024-03-25T02:49:00;10.33;;;3.00;;
75169;SDS011;63749;49.186;9.222;2024-03-25T02:51:25;9.97;;;3.30;;
75169;SDS011;63749;49.186;9.222;2024-03-25T02:53:50;8.57;;;2.90;;
75169;SDS011;63749;49.186;9.222;2024-03-25T02:56:16;9.27;;;3.00;;
75169;SDS011;63749;49.186;9.222;2024-03-25T02:58:41;8.57;;;2.60;;
75169;SDS011;63749;49.186;9.222;2024-03-25T03:01:07;10.00;;;3.23;;
75169;SDS011;63749;49.186;9.222;2024-03-25T03:03:32;9.00;;;2.90;;
75169;SDS011;63749;49.186;9.222;2024-03-25T03:05:57;7.33;;;3.13;;
75169;SDS011;63749;49.186;9.222;2024-03-25T03:08:23;8.87;;;2.97;;
75169;SDS011;63749;49.186;9.222;2024-03-25T03:10:48;9.47;;;3.10;;
75169;SDS011;63749;49.186;9.222;2024-03-25T03:13:13;8.97;;;3.20;;
75169;SDS011;63749;49.186;9.222;2024-03-25T03:15:43;8.27;;;3.10;;
75169;SDS011;63749;49.186;9.222;2024-03-25T03:18:09;6.63;;;3.00;;
75169;SDS011;63749;49.186;9.222;2024-03-25T03:20:34;8.90;;;3.20;;
75169;SDS011;63749;49.186;9.222;2024-03-25T03:23:00;7.80;;;3.13;;
75169;SDS011;63749;49.186;9.222;2024-03-25T03:25:25;9.03;;;3.40;;
75169;SDS011;63749;49.186;9.222;2024-03-25T03:27:51;10.40;;;3.90;;
75169;SDS011;63749;49.186;9.222;2024-03-25T03:30:16;11.98;;;3.40;;
75169;SDS011;63749;49.186;9.222;2024-03-25T03:32:42;11.60;;;3.70;;
75169;SDS011;63749;49.186;9.222;2024-03-25T03:35:07;15.13;;;3.90;;
75169;SDS011;63749;49.186;9.222;2024-03-25T03:37:32;9.03;;;3.37;;
75169;SDS011;63749;49.186;9.222;2024-03-25T03:39:58;9.87;;;3.50;;
75169;SDS011;63749;49.186;9.222;2024-03-25T03:42:23;7.70;;;2.90;;
75169;SDS011;63749;49.186;9.222;2024-03-25T03:44:48;7.07;;;3.00;;
75169;SDS011;63749;49.186;9.222;2024-03-25T03:47:14;8.63;;;3.17;;
75169;SDS011;63749;49.186;9.222;2024-03-25T03:49:39;15.80;;;3.50;;
75169;SDS011;63749;49.186;9.222;2024-03-25T03:52:04;7.77;;;3.10;;
75169;SDS011;63749;49.186;9.222;2024-03-25T03:54:30;8.67;;;3.37;;
75169;SDS011;63749;49.186;9.222;2024-03-25T03:56:55;10.60;;;3.20;;
75169;SDS011;63749;49.186;9.222;2024-03-25T03:59:20;10.20;;;3.60;;
75169;SDS011;63749;49.186;9.222;2024-03-25T04:01:46;9.52;;;3.38;;
75169;SDS011;63749;49.186;9.222;2024-03-25T04:04:11;11.50;;;3.30;;
75169;SDS011;63749;49.186;9.222;2024-03-25T04:06:37;11.13;;;3.40;;
75169;SDS011;63749;49.186;9.222;2024-03-25T04:09:05;9.85;;;3.13;;
75169;SDS011;63749;49.186;9.222;2024-03-25T04:11:31;9.30;;;3.30;;
75169;SDS011;63749;49.186;9.222;2024-03-25T04:13:57;8.18;;;3.30;;
75169;SDS011;63749;49.186;9.222;2024-03-25T04:16:22;10.20;;;3.27;;
75169;SDS011;63749;49.186;9.222;2024-03-25T04:18:49;10.48;;;3.42;;
75169;SDS011;63749;49.186;9.222;2024-03-25T04:21:14;8.47;;;3.10;;
75169;SDS011;63749;49.186;9.222;2024-03-25T04:23:39;7.70;;;3.40;;
75169;SDS011;63749;49.186;9.222;2024-03-25T04:26:06;10.32;;;3.38;;
75169;SDS011;63749;49.186;9.222;2024-03-25T04:28:33;11.30;;;3.43;;
75169;SDS011;63749;49.186;9.222;2024-03-25T04:30:59;7.93;;;3.13;;
75169;SDS011;63749;49.186;9.222;2024-03-25T04:33:24;9.70;;;3.20;;
75169;SDS011;63749;49.186;9.222;2024-03-25T04:35:49;8.30;;;3.20;;
75169;SDS011;63749;49.186;9.222;2024-03-25T04:38:18;10.77;;;3.53;;
75169;SDS011;63749;49.186;9.222;2024-03-25T04:40:43;11.40;;;3.38;;
75169;SDS011;63749;49.186;9.222;2024-03-25T04:43:09;8.07;;;3.43;;
75169;SDS011;63749;49.186;9.222;2024-03-25T04:45:34;8.55;;;3.35;;
75169;SDS011;63749;49.186;9.222;2024-03-25T04:48:00;7.83;;;3.27;;
75169;SDS011;63749;49.186;9.222;2024-03-25T04:50:25;8.80;;;3.43;;
75169;SDS011;63749;49.186;9.222;2024-03-25T04:52:51;11.00;;;3.40;;
75169;SDS011;63749;49.186;9.222;2024-03-25T04:55:17;8.35;;;3.30;;
75169;SDS011;63749;49.186;9.222;2024-03-25T04:57:43;6.63;;;3.30;;
75169;SDS011;63749;49.186;9.222;2024-03-25T05:00:08;9.00;;;3.60;;
75169;SDS011;63749;49.186;9.222;2024-03-25T05:02:36;7.60;;;3.28;;
75169;SDS011;63749;49.186;9.222;2024-03-25T05:05:04;8.85;;;3.63;;
75169;SDS011;63749;49.186;9.222;2024-03-25T05:07:29;16.40;;;3.93;;
75169;SDS011;63749;49.186;9.222;2024-03-25T05:09:55;10.03;;;3.67;;
75169;SDS011;63749;49.186;9.222;2024-03-25T05:12:21;8.95;;;3.42;;
75169;SDS011;63749;49.186;9.222;2024-03-25T05:14:46;7.43;;;3.30;;
75169;SDS011;63749;49.186;9.222;2024-03-25T05:17:12;9.73;;;3.50;;
75169;SDS011;63749;49.186;9.222;2024-03-25T05:19:37;12.23;;;4.10;;
75169;SDS011;63749;49.186;9.222;2024-03-25T05:22:02;11.43;;;3.87;;
75169;SDS011;63749;49.186;9.222;2024-03-25T05:24:28;11.83;;;3.70;;
75169;SDS011;63749;49.186;9.222;2024-03-25T05:26:53;9.13;;;3.90;;
75169;SDS011;63749;49.186;9.222;2024-03-25T05:29:18;10.95;;;4.15;;
75169;SDS011;63749;49.186;9.222;2024-03-25T05:31:57;18.13;;;6.50;;
75169;SDS011;63749;49.186;9.222;2024-03-25T05:34:24;17.13;;;6.17;;
75169;SDS011;63749;49.186;9.222;2024-03-25T05:36:50;19.63;;;6.75;;
75169;SDS011;63749;49.186;9.222;2024-03-25T05:39:16;20.55;;;7.32;;
75169;SDS011;63749;49.186;9.222;2024-03-25T05:41:41;13.20;;;5.23;;
75169;SDS011;63749;49.186;9.222;2024-03-25T05:44:07;14.60;;;5.73;;
75169;SDS011;63749;49.186;9.222;2024-03-25T05:46:32;14.20;;;5.70;;
75169;SDS011;63749;49.186;9.222;2024-03-25T05:49:02;13.65;;;4.90;;
75169;SDS011;63749;49.186;9.222;2024-03-25T05:51:28;11.55;;;4.07;;
75169;SDS011;63749;49.186;9.222;2024-03-25T05:53:54;13.85;;;4.13;;
75169;SDS011;63749;49.186;9.222;2024-03-25T05:56:20;9.87;;;3.80;;
75169;SDS011;63749;49.186;9.222;2024-03-25T05:58:45;13.63;;;3.80;;
75169;SDS011;63749;49.186;9.222;2024-03-25T06:01:10;10.13;;;3.70;;
75169;SDS011;63749;49.186;9.222;2024-03-25T06:03:36;9.27;;;3.60;;
75169;SDS011;63749;49.186;9.222;2024-03-25T06:06:01;11.00;;;3.63;;
75169;SDS011;63749;49.186;9.222;2024-03-25T06:08:27;10.13;;;3.37;;
75169;SDS011;63749;49.186;9.222;2024-03-25T06:10:54;10.40;;;4.00;;
75169;SDS011;63749;49.186;9.222;2024-03-25T06:13:19;11.07;;;3.93;;
75169;SDS011;63749;49.186;9.222;2024-03-25T06:15:45;12.90;;;3.58;;
75169;SDS011;63749;49.186;9.222;2024-03-25T06:18:11;14.00;;;4.13;;
75169;SDS011;63749;49.186;9.222;2024-03-25T06:20:36;9.82;;;3.58;;
75169;SDS011;63749;49.186;9.222;2024-03-25T06:23:04;10.03;;;3.90;;
75169;SDS011;63749;49.186;9.222;2024-03-25T06:25:31;10.30;;;4.03;;
75169;SDS011;63749;49.186;9.222;2024-03-25T06:27:56;11.60;;;3.90;;
75169;SDS011;63749;49.186;9.222;2024-03-25T06:30:22;9.65;;;4.15;;
75169;SDS011;63749;49.186;9.222;2024-03-25T06:33:06;11.02;;;3.88;;
75169;SDS011;63749;49.186;9.222;2024-03-25T06:35:50;11.15;;;4.07;;
75169;SDS011;63749;49.186;9.222;2024-03-25T06:38:15;13.17;;;4.63;;
75169;SDS011;63749;49.186;9.222;2024-03-25T06:40:40;9.17;;;4.27;;
75169;SDS011;63749;49.186;9.222;2024-03-25T06:43:07;10.73;;;4.13;;
75169;SDS011;63749;49.186;9.222;2024-03-25T06:45:32;11.20;;;4.07;;
75169;SDS011;63749;49.186;9.222;2024-03-25T06:47:58;8.20;;;3.60;;
75169;SDS011;63749;49.186;9.222;2024-03-25T06:50:23;11.83;;;3.80;;
75169;SDS011;63749;49.186;9.222;2024-03-25T06:52:49;8.85;;;3.95;;
75169;SDS011;63749;49.186;9.222;2024-03-25T06:55:14;13.10;;;4.23;;
75169;SDS011;63749;49.186;9.222;2024-03-25T06:57:40;14.73;;;4.00;;
75169;SDS011;63749;49.186;9.222;2024-03-25T07:00:05;11.60;;;3.73;;
75169;SDS011;63749;49.186;9.222;2024-03-25T07:02:35;10.40;;;3.73;;
75169;SDS011;63749;49.186;9.222;2024-03-25T07:05:00;9.95;;;3.72;;
75169;SDS011;63749;49.186;9.222;2024-03-25T07:07:26;10.53;;;3.73;;
75169;SDS011;63749;49.186;9.222;2024-03-25T07:09:51;9.67;;;3.70;;
75169;SDS011;63749;49.186;9.222;2024-03-25T07:12:16;8.70;;;3.50;;
75169;SDS011;63749;49.186;9.222;2024-03-25T07:14:42;9.77;;;3.33;;
75169;SDS011;63749;49.186;9.222;2024-03-25T07:17:07;8.98;;;3.60;;
75169;SDS011;63749;49.186;9.222;2024-03-25T07:19:32;8.30;;;3.10;;
75169;SDS011;63749;49.186;9.222;2024-03-25T07:21:57;10.10;;;3.50;;
75169;SDS011;63749;49.186;9.222;2024-03-25T07:24:23;8.87;;;3.40;;
75169;SDS011;63749;49.186;9.222;2024-03-25T07:26:48;7.90;;;3.20;;
75169;SDS011;63749;49.186;9.222;2024-03-25T07:29:13;8.13;;;2.97;;
75169;SDS011;63749;49.186;9.222;2024-03-25T07:31:39;8.23;;;3.27;;
75169;SDS011;63749;49.186;9.222;2024-03-25T07:34:04;10.93;;;3.23;;
75169;SDS011;63749;49.186;9.222;2024-03-25T07:36:29;7.67;;;2.97;;
75169;SDS011;63749;49.186;9.222;2024-03-25T07:38:58;7.07;;;2.78;;
75169;SDS011;63749;49.186;9.222;2024-03-25T07:41:24;7.37;;;2.60;;
75169;SDS011;63749;49.186;9.222;2024-03-25T07:43:49;8.40;;;2.90;;
75169;SDS011;63749;49.186;9.222;2024-03-25T07:46:14;7.20;;;2.50;;
75169;SDS011;63749;49.186;9.222;2024-03-25T07:48:40;7.67;;;2.40;;
75169;SDS011;63749;49.186;9.222;2024-03-25T07:51:07;6.35;;;2.70;;
75169;SDS011;63749;49.186;9.222;2024-03-25T07:53:32;6.37;;;2.20;;
75169;SDS011;63749;49.186;9.222;2024-03-25T07:55:58;5.37;;;2.17;;
75169;SDS011;63749;49.186;9.222;2024-03-25T07:58:23;5.87;;;2.33;;
75169;SDS011;63749;49.186;9.222;2024-03-25T08:00:48;7.07;;;2.20;;
75169;SDS011;63749;49.186;9.222;2024-03-25T08:03:14;9.07;;;2.63;;
75169;SDS011;63749;49.186;9.222;2024-03-25T08:05:39;7.77;;;2.20;;
75169;SDS011;63749;49.186;9.222;2024-03-25T08:08:04;6.53;;;1.97;;
75169;SDS011;63749;49.186;9.222;2024-03-25T08:10:30;5.60;;;1.93;;
75169;SDS011;63749;49.186;9.222;2024-03-25T08:12:55;4.80;;;1.43;;
75169;SDS011;63749;49.186;9.222;2024-03-25T08:15:21;6.63;;;1.50;;
75169;SDS011;63749;49.186;9.222;2024-03-25T08:17:46;4.37;;;1.40;;
75169;SDS011;63749;49.186;9.222;2024-03-25T08:20:12;5.47;;;1.80;;
75169;SDS011;63749;49.186;9.222;2024-03-25T08:22:38;5.68;;;2.13;;
75169;SDS011;63749;49.186;9.222;2024-03-25T08:25:03;3.73;;;1.70;;
75169;SDS011;63749;49.186;9.222;2024-03-25T08:27:29;6.70;;;1.63;;
75169;SDS011;63749;49.186;9.222;2024-03-25T08:29:55;3.80;;;1.70;;
75169;SDS011;63749;49.186;9.222;2024-03-25T08:32:20;5.80;;;1.80;;
75169;SDS011;63749;49.186;9.222;2024-03-25T08:34:45;5.50;;;1.90;;
75169;SDS011;63749;49.186;9.222;2024-03-25T08:37:11;6.15;;;2.13;;
75169;SDS011;63749;49.186;9.222;2024-03-25T08:39:36;4.83;;;1.90;;
75169;SDS011;63749;49.186;9.222;2024-03-25T08:42:02;5.43;;;1.90;;
75169;SDS011;63749;49.186;9.222;2024-03-25T08:44:27;4.63;;;1.77;;
75169;SDS011;63749;49.186;9.222;2024-03-25T08:46:53;4.87;;;1.60;;
75169;SDS011;63749;49.186;9.222;2024-03-25T08:49:18;5.87;;;1.73;;
75169;SDS011;63749;49.186;9.222;2024-03-25T08:51:43;5.00;;;1.70;;
75169;SDS011;63749;49.186;9.222;2024-03-25T08:54:09;2.90;;;1.60;;
75169;SDS011;63749;49.186;9.222;2024-03-25T08:56:34;5.27;;;1.80;;
75169;SDS011;63749;49.186;9.222;2024-03-25T08:58:59;4.47;;;1.88;;
75169;SDS011;63749;49.186;9.222;2024-03-25T09:01:25;5.53;;;1.80;;
75169;SDS011;63749;49.186;9.222;2024-03-25T09:03:51;4.22;;;1.50;;
75169;SDS011;63749;49.186;9.222;2024-03-25T09:06:16;5.37;;;1.50;;
75169;SDS011;63749;49.186;9.222;2024-03-25T09:08:41;4.40;;;1.77;;
75169;SDS011;63749;49.186;9.222;2024-03-25T09:11:25;3.45;;;1.50;;
75169;SDS011;63749;49.186;9.222;2024-03-25T09:13:51;6.70;;;1.70;;
75169;SDS011;63749;49.186;9.222;2024-03-25T09:16:17;4.45;;;1.70;;
75169;SDS011;63749;49.186;9.222;2024-03-25T09:18:43;5.53;;;1.80;;
75169;SDS011;63749;49.186;9.222;2024-03-25T09:21:08;6.13;;;2.00;;
75169;SDS011;63749;49.186;9.222;2024-03-25T09:23:34;5.27;;;2.00;;
75169;SDS011;63749;49.186;9.222;2024-03-25T09:25:59;5.83;;;2.03;;
75169;SDS011;63749;49.186;9.222;2024-03-25T09:28:24;5.60;;;1.87;;
75169;SDS011;63749;49.186;9.222;2024-03-25T09:30:50;4.30;;;2.07;;
75169;SDS011;63749;49.186;9.222;2024-03-25T09:33:15;6.07;;;2.07;;
75169;SDS011;63749;49.186;9.222;2024-03-25T09:35:41;4.93;;;2.10;;
75169;SDS011;63749;49.186;9.222;2024-03-25T09:38:06;5.33;;;2.23;;
75169;SDS011;63749;49.186;9.222;2024-03-25T09:40:32;4.00;;;1.93;;
75169;SDS011;63749;49.186;9.222;2024-03-25T09:43:01;4.95;;;1.95;;
75169;SDS011;63749;49.186;9.222;2024-03-25T09:45:28;3.75;;;2.00;;
75169;SDS011;63749;49.186;9.222;2024-03-25T09:47:55;6.03;;;2.08;;
75169;SDS011;63749;49.186;9.222;2024-03-25T09:50:21;4.93;;;2.05;;
75169;SDS011;63749;49.186;9.222;2024-03-25T09:52:47;5.57;;;2.40;;
75169;SDS011;63749;49.186;9.222;2024-03-25T09:55:16;4.43;;;2.08;;
75169;SDS011;63749;49.186;9.222;2024-03-25T09:57:45;4.38;;;2.15;;
75169;SDS011;63749;49.186;9.222;2024-03-25T10:00:10;5.50;;;2.10;;
75169;SDS011;63749;49.186;9.222;2024-03-25T10:02:37;3.20;;;1.90;;
75169;SDS011;63749;49.186;9.222;2024-03-25T10:05:04;5.53;;;2.20;;
75169;SDS011;63749;49.186;9.222;2024-03-25T10:07:30;5.50;;;2.10;;
75169;SDS011;63749;49.186;9.222;2024-03-25T10:09:55;4.80;;;1.90;;
75169;SDS011;63749;49.186;9.222;2024-03-25T10:12:21;3.10;;;1.95;;
75169;SDS011;63749;49.186;9.222;2024-03-25T10:14:46;3.80;;;1.90;;
75169;SDS011;63749;49.186;9.222;2024-03-25T10:17:12;4.45;;;1.80;;
75169;SDS011;63749;49.186;9.222;2024-03-25T10:19:38;4.63;;;1.90;;
75169;SDS011;63749;49.186;9.222;2024-03-25T10:22:07;4.53;;;1.77;;
75169;SDS011;63749;49.186;9.222;2024-03-25T10:24:41;3.93;;;2.00;;
75169;SDS011;63749;49.186;9.222;2024-03-25T10:27:10;4.13;;;1.80;;
75169;SDS011;63749;49.186;9.222;2024-03-25T10:29:43;3.78;;;1.90;;
75169;SDS011;63749;49.186;9.222;2024-03-25T10:32:08;3.97;;;1.90;;
75169;SDS011;63749;49.186;9.222;2024-03-25T10:34:33;4.03;;;2.00;;
75169;SDS011;63749;49.186;9.222;2024-03-25T10:36:59;4.60;;;1.83;;
75169;SDS011;63749;49.186;9.222;2024-03-25T10:39:27;6.37;;;2.00;;
75169;SDS011;63749;49.186;9.222;2024-03-25T10:41:56;5.28;;;2.25;;
75169;SDS011;63749;49.186;9.222;2024-03-25T10:44:26;4.72;;;2.10;;
75169;SDS011;63749;49.186;9.222;2024-03-25T10:46:59;4.63;;;2.85;;
75169;SDS011;63749;49.186;9.222;2024-03-25T10:49:39;5.32;;;2.13;;
75169;SDS011;63749;49.186;9.222;2024-03-25T10:52:13;5.37;;;2.10;;
75169;SDS011;63749;49.186;9.222;2024-03-25T10:54:40;5.63;;;2.20;;
75169;SDS011;63749;49.186;9.222;2024-03-25T10:57:07;5.68;;;2.10;;
75169;SDS011;63749;49.186;9.222;2024-03-25T10:59:34;3.75;;;2.08;;
75169;SDS011;63749;49.186;9.222;2024-03-25T11:02:04;4.57;;;2.20;;
75169;SDS011;63749;49.186;9.222;2024-03-25T11:04:30;6.17;;;2.40;;
75169;SDS011;63749;49.186;9.222;2024-03-25T11:07:06;4.68;;;2.20;;
75169;SDS011;63749;49.186;9.222;2024-03-25T11:09:35;3.93;;;1.90;;
75169;SDS011;63749;49.186;9.222;2024-03-25T11:12:01;3.65;;;1.80;;
75169;SDS011;63749;49.186;9.222;2024-03-25T11:14:27;3.90;;;2.00;;
75169;SDS011;63749;49.186;9.222;2024-03-25T11:16:53;3.55;;;1.98;;
75169;SDS011;63749;49.186;9.222;2024-03-25T11:19:18;4.78;;;1.95;;
75169;SDS011;63749;49.186;9.222;2024-03-25T11:21:45;5.00;;;2.00;;
75169;SDS011;63749;49.186;9.222;2024-03-25T11:24:11;3.95;;;1.90;;
75169;SDS011;63749;49.186;9.222;2024-03-25T11:26:43;7.07;;;2.22;;
75169;SDS011;63749;49.186;9.222;2024-03-25T11:29:08;3.50;;;2.00;;
75169;SDS011;63749;49.186;9.222;2024-03-25T11:31:34;4.57;;;1.90;;
75169;SDS011;63749;49.186;9.222;2024-03-25T11:34:03;5.43;;;2.25;;
75169;SDS011;63749;49.186;9.222;2024-03-25T11:36:29;4.07;;;2.00;;
75169;SDS011;63749;49.186;9.222;2024-03-25T11:39:00;6.47;;;2.03;;
75169;SDS011;63749;49.186;9.222;2024-03-25T11:41:34;4.80;;;1.90;;
75169;SDS011;63749;49.186;9.222;2024-03-25T11:44:00;5.85;;;2.25;;
75169;SDS011;63749;49.186;9.222;2024-03-25T11:46:26;4.07;;;2.10;;
75169;SDS011;63749;49.186;9.222;2024-03-25T11:48:52;5.37;;;2.10;;
75169;SDS011;63749;49.186;9.222;2024-03-25T11:51:18;4.78;;;2.40;;
75169;SDS011;63749;49.186;9.222;2024-03-25T11:53:43;3.87;;;2.00;;
75169;SDS011;63749;49.186;9.222;2024-03-25T11:56:09;7.83;;;2.23;;
75169;SDS011;63749;49.186;9.222;2024-03-25T11:58:36;4.25;;;2.10;;
75169;SDS011;63749;49.186;9.222;2024-03-25T12:01:02;4.83;;;2.40;;
75169;SDS011;63749;49.186;9.222;2024-03-25T12:03:27;6.97;;;2.40;;
75169;SDS011;63749;49.186;9.222;2024-03-25T12:05:53;7.10;;;2.40;;
75169;SDS011;63749;49.186;9.222;2024-03-25T12:08:18;3.90;;;2.20;;
75169;SDS011;63749;49.186;9.222;2024-03-25T12:10:43;5.07;;;2.40;;
75169;SDS011;63749;49.186;9.222;2024-03-25T12:13:27;5.17;;;2.43;;
75169;SDS011;63749;49.186;9.222;2024-03-25T12:15:53;5.03;;;2.37;;
75169;SDS011;63749;49.186;9.222;2024-03-25T12:18:19;6.90;;;2.50;;
75169;SDS011;63749;49.186;9.222;2024-03-25T12:20:45;6.85;;;2.38;;
75169;SDS011;63749;49.186;9.222;2024-03-25T12:23:11;5.07;;;2.30;;
75169;SDS011;63749;49.186;9.222;2024-03-25T12:25:36;4.33;;;2.17;;
75169;SDS011;63749;49.186;9.222;2024-03-25T12:28:07;6.15;;;2.30;;
75169;SDS011;63749;49.186;9.222;2024-03-25T12:30:35;6.77;;;2.40;;
75169;SDS011;63749;49.186;9.222;2024-03-25T12:33:13;3.83;;;2.10;;
75169;SDS011;63749;49.186;9.222;2024-03-25T12:35:39;3.80;;;2.10;;
75169;SDS011;63749;49.186;9.222;2024-03-25T12:38:05;5.05;;;2.15;;
75169;SDS011;63749;49.186;9.222;2024-03-25T12:40:31;5.05;;;2.22;;
75169;SDS011;63749;49.186;9.222;2024-03-25T12:42:56;5.43;;;2.20;;
75169;SDS011;63749;49.186;9.222;2024-03-25T12:45:21;5.07;;;2.10;;
75169;SDS011;63749;49.186;9.222;2024-03-25T12:47:51;4.00;;;2.00;;
75169;SDS011;63749;49.186;9.222;2024-03-25T12:50:16;6.40;;;2.10;;
75169;SDS011;63749;49.186;9.222;2024-03-25T12:52:41;6.50;;;2.35;;
75169;SDS011;63749;49.186;9.222;2024-03-25T12:55:07;4.40;;;2.00;;
75169;SDS011;63749;49.186;9.222;2024-03-25T12:57:32;4.70;;;2.00;;
75169;SDS011;63749;49.186;9.222;2024-03-25T12:59:58;14.80;;;2.20;;
75169;SDS011;63749;49.186;9.222;2024-03-25T13:02:23;7.20;;;2.30;;
75169;SDS011;63749;49.186;9.222;2024-03-25T13:04:50;5.63;;;2.58;;
75169;SDS011;63749;49.186;9.222;2024-03-25T13:07:15;4.80;;;2.47;;
75169;SDS011;63749;49.186;9.222;2024-03-25T13:09:41;5.93;;;2.20;;
75169;SDS011;63749;49.186;9.222;2024-03-25T13:12:06;4.83;;;2.33;;
75169;SDS011;63749;49.186;9.222;2024-03-25T13:14:32;4.23;;;2.50;;
75169;SDS011;63749;49.186;9.222;2024-03-25T13:16:57;4.70;;;2.50;;
75169;SDS011;63749;49.186;9.222;2024-03-25T13:19:22;4.78;;;2.65;;
75169;SDS011;63749;49.186;9.222;2024-03-25T13:21:48;6.17;;;2.50;;
75169;SDS011;63749;49.186;9.222;2024-03-25T13:24:14;3.90;;;2.53;;
75169;SDS011;63749;49.186;9.222;2024-03-25T13:26:40;6.28;;;2.65;;
75169;SDS011;63749;49.186;9.222;2024-03-25T13:29:05;5.03;;;2.60;;
75169;SDS011;63749;49.186;9.222;2024-03-25T13:31:32;6.10;;;2.90;;
75169;SDS011;63749;49.186;9.222;2024-03-25T13:33:58;4.13;;;2.50;;
75169;SDS011;63749;49.186;9.222;2024-03-25T13:36:24;3.25;;;2.38;;
75169;SDS011;63749;49.186;9.222;2024-03-25T13:38:50;7.17;;;2.60;;
75169;SDS011;63749;49.186;9.222;2024-03-25T13:41:15;4.57;;;2.80;;
75169;SDS011;63749;49.186;9.222;2024-03-25T13:43:43;4.63;;;2.70;;
75169;SDS011;63749;49.186;9.222;2024-03-25T13:46:08;5.30;;;3.13;;
75169;SDS011;63749;49.186;9.222;2024-03-25T13:48:34;4.40;;;2.70;;
75169;SDS011;63749;49.186;9.222;2024-03-25T13:50:59;4.57;;;2.97;;
75169;SDS011;63749;49.186;9.222;2024-03-25T13:53:24;4.40;;;2.70;;
75169;SDS011;63749;49.186;9.222;2024-03-25T13:55:50;4.22;;;3.00;;
75169;SDS011;63749;49.186;9.222;2024-03-25T13:58:16;5.10;;;2.87;;
75169;SDS011;63749;49.186;9.222;2024-03-25T14:00:41;4.80;;;2.87;;
75169;SDS011;63749;49.186;9.222;2024-03-25T14:03:06;4.70;;;3.10;;
75169;SDS011;63749;49.186;9.222;2024-03-25T14:05:32;5.00;;;2.80;;
75169;SDS011;63749;49.186;9.222;2024-03-25T14:07:57;4.15;;;2.67;;
75169;SDS011;63749;49.186;9.222;2024-03-25T14:10:23;4.80;;;2.90;;
75169;SDS011;63749;49.186;9.222;2024-03-25T14:12:48;4.37;;;2.70;;
75169;SDS011;63749;49.186;9.222;2024-03-25T14:15:13;4.47;;;2.93;;
75169;SDS011;63749;49.186;9.222;2024-03-25T14:17:39;5.73;;;2.90;;
75169;SDS011;63749;49.186;9.222;2024-03-25T14:20:04;6.27;;;3.03;;
75169;SDS011;63749;49.186;9.222;2024-03-25T14:22:31;5.10;;;2.90;;
75169;SDS011;63749;49.186;9.222;2024-03-25T14:24:57;4.88;;;3.00;;
75169;SDS011;63749;49.186;9.222;2024-03-25T14:27:24;4.43;;;3.05;;
75169;SDS011;63749;49.186;9.222;2024-03-25T14:29:50;7.03;;;3.17;;
75169;SDS011;63749;49.186;9.222;2024-03-25T14:32:15;6.83;;;3.00;;
75169;SDS011;63749;49.186;9.222;2024-03-25T14:34:44;3.85;;;3.10;;
75169;SDS011;63749;49.186;9.222;2024-03-25T14:37:09;4.87;;;3.37;;
75169;SDS011;63749;49.186;9.222;2024-03-25T14:39:34;6.03;;;2.97;;